Zion, Louisiana
Current Conditions -  °F | °C
As of 3:53 PM on Sunday 23 Nov 2014 (Local Time) from KESF Reporting Station
Clear Clear  
Wind Chill: 73°   Ceiling: Unl
Heat Index: 73°   Visibility: 10mi
Dew Point: 59°   Wind: 14mph
Humidity: 61%   Direction: 200°SSW
Pressure: 29.53"   Gusts: 18mph
Location:  31.7323°N, 92.4245°W
Report Text: KESF 232153Z AUTO 20012G16KT 10SM CLR 23/15 A2953 RMK AO2 SLP998 T02280150
Loading
Personal Weather Stations






























Interactive Weather Map New forecast layout! Learn more

10-Day Weather Forecast

Advertisements
Track Severe Weather on mobile